Time;durP1;ratioP1;P1;durP2;ratioP2;P2;SDS_P1;SDS_P2;PMS_P1;PMS_P2;Temp;Humidity;BMP_temperature;BMP_pressure;BME280_temperature;BME280_humidity;BME280_pressure;Samples;Min_cycle;Max_cycle;Signal;HPM_P1;HPM_P2
2022/07/30 00:01:49;;;;;;;3.30;2.17;;;18.90;99.90;;;;;;5028418;28;20490;-51
2022/07/30 00:04:16;;;;;;;2.50;2.30;;;18.80;99.90;;;;;;5030695;28;20455;-50
2022/07/30 00:06:42;;;;;;;11.13;1.80;;;18.80;99.90;;;;;;5026604;28;20553;-50
2022/07/30 00:09:10;;;;;;;3.80;2.20;;;18.80;99.90;;;;;;5029024;28;20505;-51
2022/07/30 00:11:37;;;;;;;14.20;1.90;;;18.70;99.90;;;;;;5027895;28;20544;-51
2022/07/30 00:14:04;;;;;;;3.93;2.73;;;18.70;99.90;;;;;;5027558;28;20490;-50
2022/07/30 00:16:30;;;;;;;15.93;2.27;;;18.70;99.90;;;;;;5024931;28;20486;-51
2022/07/30 00:18:57;;;;;;;1.83;1.60;;;18.60;99.90;;;;;;5021852;28;20514;-51
2022/07/30 00:21:24;;;;;;;5.57;1.83;;;18.60;99.90;;;;;;5026770;28;20981;-51
2022/07/30 00:23:50;;;;;;;4.30;2.30;;;18.50;99.90;;;;;;5024014;28;20494;-51
2022/07/30 00:26:18;;;;;;;4.10;1.70;;;18.50;99.90;;;;;;5022122;28;20541;-50
2022/07/30 00:28:45;;;;;;;3.27;1.80;;;18.50;99.90;;;;;;5029387;28;20574;-51
2022/07/30 00:31:11;;;;;;;4.33;2.23;;;18.50;99.90;;;;;;5027528;28;20490;-49
2022/07/30 00:33:38;;;;;;;2.63;2.43;;;18.40;99.90;;;;;;5028456;28;20584;-51
2022/07/30 00:36:05;;;;;;;4.33;1.97;;;18.40;99.90;;;;;;5025329;28;20495;-50
2022/07/30 00:38:31;;;;;;;3.20;2.13;;;18.40;99.90;;;;;;5033184;28;20525;-50
2022/07/30 00:40:58;;;;;;;3.07;1.83;;;18.30;99.90;;;;;;5033065;28;20498;-51
2022/07/30 00:43:26;;;;;;;3.67;1.87;;;18.30;99.90;;;;;;5031368;28;21018;-50
2022/07/30 00:45:52;;;;;;;9.33;2.13;;;18.30;99.90;;;;;;5026848;28;21031;-51
2022/07/30 00:48:19;;;;;;;3.67;2.20;;;18.30;99.90;;;;;;5022242;28;20494;-51
2022/07/30 00:50:46;;;;;;;3.87;2.40;;;18.30;99.90;;;;;;5029327;28;20936;-50
2022/07/30 00:53:12;;;;;;;5.60;1.93;;;18.30;99.90;;;;;;5030582;28;20510;-51
2022/07/30 00:55:39;;;;;;;2.40;1.90;;;18.20;99.90;;;;;;5033576;28;20487;-51
2022/07/30 00:58:05;;;;;;;4.23;2.00;;;18.20;99.90;;;;;;5032242;28;20514;-51
2022/07/30 01:00:33;;;;;;;2.70;1.97;;;18.20;99.90;;;;;;5028899;28;20498;-51
2022/07/30 01:03:00;;;;;;;2.40;2.20;;;18.20;99.90;;;;;;5033060;28;20506;-52
2022/07/30 01:05:27;;;;;;;3.87;2.07;;;18.20;99.90;;;;;;5030405;28;20520;-51
2022/07/30 01:07:54;;;;;;;5.80;2.23;;;18.10;99.90;;;;;;5034163;28;20478;-50
2022/07/30 01:10:21;;;;;;;4.70;2.20;;;18.10;99.90;;;;;;5028192;28;20505;-50
2022/07/30 01:12:47;;;;;;;9.83;2.50;;;18.10;99.90;;;;;;5025371;28;20489;-51
2022/07/30 01:15:15;;;;;;;3.83;2.23;;;18.10;99.90;;;;;;5027434;28;20869;-50
2022/07/30 01:17:46;;;;;;;11.30;2.10;;;18.10;99.90;;;;;;5018428;28;20479;-51
2022/07/30 01:20:16;;;;;;;7.30;2.53;;;18.10;99.90;;;;;;5023265;28;20557;-51
2022/07/30 01:22:50;;;;;;;15.57;2.47;;;18.00;99.90;;;;;;5031328;28;20470;-50
2022/07/30 01:25:24;;;;;;;5.63;2.60;;;18.00;99.90;;;;;;5032096;28;20458;-50
2022/07/30 01:27:56;;;;;;;2.10;2.00;;;18.00;99.90;;;;;;5033417;28;20481;-50
2022/07/30 01:30:39;;;;;;;2.00;1.90;;;18.00;99.90;;;;;;5029592;28;20499;-51
2022/07/30 01:33:07;;;;;;;7.60;2.60;;;18.00;99.90;;;;;;5022566;28;21095;-50
2022/07/30 01:35:35;;;;;;;3.07;2.37;;;18.00;99.90;;;;;;5031562;28;20556;-52
2022/07/30 01:38:03;;;;;;;6.50;2.70;;;18.00;99.90;;;;;;5030115;28;20510;-51
2022/07/30 01:40:32;;;;;;;4.13;2.47;;;18.00;99.90;;;;;;5029170;28;20498;-51
2022/07/30 01:43:01;;;;;;;4.10;2.13;;;17.90;99.90;;;;;;5029901;28;20517;-50
2022/07/30 01:45:30;;;;;;;2.73;2.07;;;17.90;99.90;;;;;;5029261;28;20545;-50
2022/07/30 01:47:59;;;;;;;7.60;2.20;;;17.90;99.90;;;;;;5021793;28;20455;-50
2022/07/30 01:50:27;;;;;;;2.17;2.00;;;17.90;99.90;;;;;;5026182;28;20459;-51
2022/07/30 01:52:56;;;;;;;8.13;2.27;;;17.90;99.90;;;;;;5028931;28;21046;-50
2022/07/30 01:55:26;;;;;;;3.30;2.63;;;17.80;99.90;;;;;;5031932;28;20964;-50
2022/07/30 01:57:55;;;;;;;2.47;1.90;;;17.80;99.90;;;;;;5032745;28;21030;-51
2022/07/30 02:00:26;;;;;;;2.43;2.20;;;17.80;99.90;;;;;;5030855;28;20522;-51
2022/07/30 02:02:53;;;;;;;5.03;2.13;;;17.80;99.90;;;;;;5029721;28;20904;-51
2022/07/30 02:05:19;;;;;;;10.23;1.93;;;17.80;99.90;;;;;;5030578;28;20831;-50
2022/07/30 02:07:52;;;;;;;3.30;2.07;;;17.80;99.90;;;;;;5025979;28;20923;-50
2022/07/30 02:10:26;;;;;;;3.13;2.73;;;17.80;99.90;;;;;;5025440;28;20455;-51
2022/07/30 02:12:56;;;;;;;2.30;1.80;;;17.70;99.90;;;;;;5025597;28;20506;-50
2022/07/30 02:15:28;;;;;;;5.33;2.07;;;17.80;99.90;;;;;;5028901;28;20463;-50
2022/07/30 02:17:59;;;;;;;2.20;1.80;;;17.80;99.90;;;;;;5027808;28;20510;-51
2022/07/30 02:20:29;;;;;;;3.73;2.03;;;17.80;99.90;;;;;;5032041;28;20509;-51
2022/07/30 02:22:59;;;;;;;3.07;1.90;;;17.70;99.90;;;;;;5030382;28;20549;-50
2022/07/30 02:25:27;;;;;;;1.70;1.60;;;17.70;99.90;;;;;;5030491;28;20471;-51
2022/07/30 02:27:58;;;;;;;3.03;1.80;;;17.70;99.90;;;;;;5026198;28;20982;-50
2022/07/30 02:30:30;;;;;;;5.13;1.70;;;17.70;99.90;;;;;;5030966;28;20506;-50
2022/07/30 02:33:05;;;;;;;5.80;2.60;;;17.70;99.90;;;;;;5030635;28;20482;-51
2022/07/30 02:35:34;;;;;;;2.07;1.90;;;17.70;99.90;;;;;;5025218;28;20490;-51
2022/07/30 02:38:02;;;;;;;7.77;1.67;;;17.70;99.90;;;;;;5024170;28;20483;-50
2022/07/30 02:40:29;;;;;;;2.13;1.70;;;17.70;99.90;;;;;;5030926;28;20470;-50
2022/07/30 02:42:57;;;;;;;3.70;2.10;;;17.70;99.90;;;;;;5031347;28;20510;-51
2022/07/30 02:45:26;;;;;;;6.93;2.27;;;17.70;99.90;;;;;;5025581;28;20996;-52
2022/07/30 02:47:57;;;;;;;1.83;1.73;;;17.70;99.90;;;;;;5030786;28;20487;-51
2022/07/30 02:50:25;;;;;;;3.20;2.20;;;17.70;99.90;;;;;;5030887;28;21042;-51
2022/07/30 02:52:53;;;;;;;5.07;1.90;;;17.70;99.90;;;;;;5027977;28;21017;-50
2022/07/30 02:55:21;;;;;;;3.90;2.27;;;17.70;99.90;;;;;;5029105;28;20494;-51
2022/07/30 02:57:50;;;;;;;2.30;2.10;;;17.60;99.90;;;;;;5029475;28;20971;-50
2022/07/30 03:00:17;;;;;;;1.93;1.70;;;17.70;99.90;;;;;;5032616;28;20499;-50
2022/07/30 03:02:46;;;;;;;3.13;1.70;;;17.70;99.90;;;;;;5027502;28;20514;-51
2022/07/30 03:05:15;;;;;;;2.00;1.90;;;17.70;99.90;;;;;;5026561;28;20513;-51
2022/07/30 03:07:42;;;;;;;14.90;2.07;;;17.70;99.90;;;;;;5024859;28;21478;-51
2022/07/30 03:10:12;;;;;;;2.60;1.70;;;17.60;99.90;;;;;;5028840;28;20461;-49
2022/07/30 03:12:41;;;;;;;2.23;2.00;;;17.60;99.90;;;;;;5030447;28;20540;-50
2022/07/30 03:15:09;;;;;;;3.63;2.60;;;17.60;99.90;;;;;;5027394;28;20499;-51
2022/07/30 03:17:41;;;;;;;3.53;2.00;;;17.60;99.90;;;;;;5023015;28;20486;-50
2022/07/30 03:20:13;;;;;;;2.60;2.03;;;17.60;99.90;;;;;;5022339;28;20464;-51
2022/07/30 03:22:42;;;;;;;5.43;2.40;;;17.60;99.90;;;;;;5019790;28;20514;-50
2022/07/30 03:25:11;;;;;;;3.43;1.80;;;17.60;99.90;;;;;;5024171;28;20485;-50
2022/07/30 03:27:39;;;;;;;6.10;2.13;;;17.50;99.90;;;;;;5031154;28;21017;-50
2022/07/30 03:30:07;;;;;;;3.93;3.30;;;17.50;99.90;;;;;;5030243;28;20558;-51
2022/07/30 03:32:34;;;;;;;4.00;2.30;;;17.60;99.90;;;;;;5040554;23;20520;-52
2022/07/30 03:35:01;;;;;;;8.00;2.87;;;17.50;99.90;;;;;;5046542;28;20978;-52
2022/07/30 03:37:31;;;;;;;2.03;1.93;;;17.50;99.90;;;;;;5050968;28;20442;-52
2022/07/30 03:39:59;;;;;;;2.03;1.93;;;17.50;99.90;;;;;;5050859;28;20481;-52
2022/07/30 03:42:27;;;;;;;4.50;1.60;;;17.50;99.90;;;;;;5050702;28;20489;-54
2022/07/30 03:44:54;;;;;;;3.53;2.07;;;17.50;99.90;;;;;;5046889;28;20517;-53
2022/07/30 03:47:22;;;;;;;9.30;2.47;;;17.50;99.90;;;;;;5049077;28;20465;-53
2022/07/30 03:49:48;;;;;;;1.80;1.70;;;17.50;99.90;;;;;;5051540;28;20532;-53
2022/07/30 03:52:16;;;;;;;2.20;2.10;;;17.50;99.90;;;;;;5050421;28;20446;-52
2022/07/30 03:54:45;;;;;;;7.30;2.83;;;17.40;99.90;;;;;;5050489;28;20691;-53
2022/07/30 03:57:12;;;;;;;4.90;1.80;;;17.40;99.90;;;;;;5051807;28;20474;-53
2022/07/30 03:59:39;;;;;;;7.30;2.07;;;17.40;99.90;;;;;;5053384;28;20509;-52
2022/07/30 04:02:05;;;;;;;2.90;1.40;;;17.40;99.90;;;;;;5047406;28;20547;-53
2022/07/30 04:04:32;;;;;;;1.63;1.53;;;17.40;99.90;;;;;;5050118;28;20484;-54
2022/07/30 04:06:59;;;;;;;2.27;2.07;;;17.40;99.90;;;;;;5054401;28;20860;-53
2022/07/30 04:09:25;;;;;;;4.73;2.00;;;17.40;99.90;;;;;;5051779;28;20863;-52
2022/07/30 04:11:53;;;;;;;1.97;1.87;;;17.40;99.90;;;;;;5050147;28;20489;-53
2022/07/30 04:14:20;;;;;;;4.30;1.63;;;17.40;99.90;;;;;;5051491;28;20466;-53
2022/07/30 04:16:53;;;;;;;4.13;1.40;;;17.40;99.90;;;;;;5045184;28;20485;-52
2022/07/30 04:19:23;;;;;;;3.37;2.00;;;17.30;99.90;;;;;;5051463;28;20535;-52
2022/07/30 04:21:52;;;;;;;1.80;1.60;;;17.30;99.90;;;;;;5052736;28;20947;-52
2022/07/30 04:24:20;;;;;;;1.67;1.57;;;17.30;99.90;;;;;;5051276;28;20991;-53
2022/07/30 04:26:48;;;;;;;4.10;1.90;;;17.30;99.90;;;;;;5051193;28;20560;-53
2022/07/30 04:29:17;;;;;;;4.40;1.70;;;17.30;99.10;;;;;;5050050;28;20960;-52
2022/07/30 04:31:44;;;;;;;6.83;1.53;;;17.30;90.60;;;;;;5047928;28;20568;-52
2022/07/30 04:34:13;;;;;;;2.80;1.80;;;17.30;87.10;;;;;;5049845;28;20512;-54
2022/07/30 04:36:42;;;;;;;2.20;2.00;;;17.30;93.80;;;;;;5057670;28;20462;-53
2022/07/30 04:39:09;;;;;;;3.23;1.73;;;17.30;96.20;;;;;;5051555;28;20521;-53
2022/07/30 04:41:36;;;;;;;4.73;1.93;;;17.30;92.60;;;;;;5050069;28;20450;-52
2022/07/30 04:44:03;;;;;;;2.40;1.53;;;17.30;90.20;;;;;;5049221;28;20509;-54
2022/07/30 04:46:31;;;;;;;7.20;2.10;;;17.30;91.30;;;;;;5048809;28;20503;-53
2022/07/30 04:48:58;;;;;;;5.17;1.83;;;17.30;87.20;;;;;;5050542;28;20995;-53
2022/07/30 04:51:33;;;;;;;7.80;2.33;;;17.30;88.80;;;;;;5051764;28;20519;-53
2022/07/30 04:54:01;;;;;;;1.93;1.60;;;17.30;88.20;;;;;;5049835;28;20500;-53
2022/07/30 04:56:30;;;;;;;5.87;1.83;;;17.40;84.20;;;;;;5048930;28;20469;-53
2022/07/30 04:58:57;;;;;;;2.07;1.97;;;17.30;85.50;;;;;;5049919;28;21015;-53
2022/07/30 05:01:28;;;;;;;2.20;2.00;;;17.30;79.20;;;;;;5047396;28;20505;-53
2022/07/30 05:03:58;;;;;;;6.93;2.00;;;17.30;77.60;;;;;;5050759;28;20458;-53
2022/07/30 05:06:25;;;;;;;2.00;1.73;;;17.30;78.90;;;;;;5050159;28;20462;-53
2022/07/30 05:08:52;;;;;;;2.67;2.03;;;17.30;77.50;;;;;;5054021;28;20462;-53
2022/07/30 05:11:19;;;;;;;2.83;2.00;;;17.30;76.60;;;;;;5048975;28;20492;-53
2022/07/30 05:13:48;;;;;;;6.60;1.97;;;17.40;73.80;;;;;;5048666;28;20509;-53
2022/07/30 05:16:15;;;;;;;3.23;2.00;;;17.50;67.80;;;;;;5051611;28;20465;-53
2022/07/30 05:18:42;;;;;;;2.53;2.33;;;17.40;72.70;;;;;;5051951;28;20556;-53
2022/07/30 05:21:10;;;;;;;1.87;1.77;;;17.50;72.20;;;;;;5053542;28;20485;-52
2022/07/30 05:23:37;;;;;;;2.33;1.77;;;17.50;80.80;;;;;;5054537;28;20513;-54
2022/07/30 05:26:04;;;;;;;4.33;2.17;;;17.60;82.20;;;;;;5046844;28;20911;-53
2022/07/30 05:28:30;;;;;;;6.27;1.90;;;17.60;84.50;;;;;;5046799;28;20529;-53
2022/07/30 05:30:57;;;;;;;4.27;1.93;;;17.60;88.70;;;;;;5047528;28;20501;-53
2022/07/30 05:33:24;;;;;;;2.30;1.87;;;17.60;84.10;;;;;;5052011;28;20516;-54
2022/07/30 05:35:51;;;;;;;2.80;1.77;;;17.60;84.90;;;;;;5051782;28;20553;-53
2022/07/30 05:38:18;;;;;;;3.73;1.70;;;17.70;87.30;;;;;;5052897;28;20465;-53
2022/07/30 05:40:46;;;;;;;1.93;1.80;;;17.70;81.40;;;;;;5053205;28;20493;-54
2022/07/30 05:43:13;;;;;;;1.93;1.80;;;17.70;87.50;;;;;;5054688;28;20481;-52
2022/07/30 05:45:39;;;;;;;1.97;1.50;;;17.70;85.80;;;;;;5053368;28;20490;-53
2022/07/30 05:48:06;;;;;;;1.97;1.83;;;17.70;84.50;;;;;;5052676;28;20485;-54
2022/07/30 05:50:33;;;;;;;6.63;2.80;;;17.70;86.00;;;;;;5044416;28;20554;-53
2022/07/30 05:53:00;;;;;;;3.50;2.33;;;17.80;87.70;;;;;;5054808;28;20516;-53
2022/07/30 05:55:28;;;;;;;1.83;1.73;;;17.80;86.40;;;;;;5053302;28;20981;-54
2022/07/30 05:57:54;;;;;;;4.50;1.77;;;17.80;83.40;;;;;;5053235;28;20979;-53
2022/07/30 06:00:21;;;;;;;3.03;1.60;;;17.80;82.50;;;;;;5047007;28;20539;-53
2022/07/30 06:02:47;;;;;;;3.07;1.60;;;17.80;82.10;;;;;;5051797;28;20505;-52
2022/07/30 06:05:14;;;;;;;1.50;1.40;;;17.80;85.10;;;;;;5051472;28;20498;-52
2022/07/30 06:07:41;;;;;;;3.73;2.00;;;17.90;86.60;;;;;;5051687;28;20497;-53
2022/07/30 06:10:08;;;;;;;2.00;1.23;;;17.90;87.30;;;;;;5055012;28;20508;-54
2022/07/30 06:12:36;;;;;;;3.33;1.90;;;17.90;86.30;;;;;;5051491;28;20535;-53
2022/07/30 06:15:02;;;;;;;2.53;1.50;;;17.90;87.50;;;;;;5052943;28;20512;-52
2022/07/30 06:17:29;;;;;;;1.83;1.43;;;17.90;86.30;;;;;;5053892;28;20489;-53
2022/07/30 06:19:56;;;;;;;3.83;1.73;;;17.90;86.80;;;;;;5050071;28;20509;-52
2022/07/30 06:22:22;;;;;;;2.70;1.50;;;17.90;82.30;;;;;;5051928;28;20516;-53
2022/07/30 06:24:49;;;;;;;1.83;1.73;;;17.90;79.40;;;;;;5051121;28;21092;-54
2022/07/30 06:27:15;;;;;;;2.30;1.70;;;17.90;81.90;;;;;;5052394;28;20937;-52
2022/07/30 06:29:43;;;;;;;2.70;1.60;;;17.90;83.70;;;;;;5049799;28;20955;-52
2022/07/30 06:32:10;;;;;;;1.90;1.40;;;17.90;80.40;;;;;;5049446;28;20494;-53
2022/07/30 06:34:36;;;;;;;3.50;2.27;;;18.00;85.10;;;;;;5051097;28;20517;-53
2022/07/30 06:37:03;;;;;;;2.77;1.57;;;18.00;88.20;;;;;;5052076;28;20497;-53
2022/07/30 06:39:29;;;;;;;2.60;1.50;;;18.00;86.40;;;;;;5049663;28;20575;-53
2022/07/30 06:41:56;;;;;;;2.20;1.50;;;18.00;88.60;;;;;;5051016;28;20497;-54
2022/07/30 06:44:23;;;;;;;2.13;1.60;;;18.00;84.70;;;;;;5056606;28;20587;-53
2022/07/30 06:46:50;;;;;;;6.10;1.60;;;18.10;85.80;;;;;;5051017;28;20819;-53
2022/07/30 06:49:17;;;;;;;2.03;1.70;;;18.20;83.50;;;;;;5050004;28;20466;-53
2022/07/30 06:51:44;;;;;;;5.10;1.50;;;18.20;81.20;;;;;;5055456;28;20478;-53
2022/07/30 06:54:11;;;;;;;2.40;1.70;;;18.20;85.30;;;;;;5052194;28;20461;-54
2022/07/30 06:56:38;;;;;;;7.40;1.80;;;18.30;85.20;;;;;;5054886;28;21149;-52
2022/07/30 06:59:04;;;;;;;3.13;1.60;;;18.30;89.50;;;;;;5050748;28;21082;-54
2022/07/30 07:01:31;;;;;;;3.43;1.50;;;18.30;90.70;;;;;;5046359;28;20485;-54
2022/07/30 07:03:59;;;;;;;3.03;1.40;;;18.30;90.00;;;;;;5051543;28;20494;-52
2022/07/30 07:06:25;;;;;;;1.50;1.40;;;18.40;89.80;;;;;;5052959;28;20489;-52
2022/07/30 07:08:52;;;;;;;1.63;1.30;;;18.30;87.90;;;;;;5051276;28;20453;-52
2022/07/30 07:11:18;;;;;;;8.10;1.87;;;18.40;90.50;;;;;;5049781;28;20516;-53
2022/07/30 07:13:45;;;;;;;4.67;1.37;;;18.40;88.90;;;;;;5051389;28;20485;-52
2022/07/30 07:16:12;;;;;;;1.87;1.37;;;18.40;88.00;;;;;;5053432;28;20453;-52
2022/07/30 07:18:38;;;;;;;1.70;1.50;;;18.40;85.10;;;;;;5051523;28;20446;-52
2022/07/30 07:21:07;;;;;;;2.20;1.60;;;18.50;87.10;;;;;;5055149;28;20538;-56
2022/07/30 07:23:33;;;;;;;1.30;1.20;;;18.50;88.80;;;;;;5054918;28;20818;-53
2022/07/30 07:26:00;;;;;;;5.20;1.53;;;18.60;89.80;;;;;;5054132;28;20461;-53
2022/07/30 07:28:26;;;;;;;2.50;1.60;;;18.60;85.90;;;;;;5051320;28;20839;-52
2022/07/30 07:30:53;;;;;;;4.77;1.60;;;18.60;87.10;;;;;;5046723;28;20837;-53
2022/07/30 07:33:20;;;;;;;3.93;1.40;;;18.70;88.40;;;;;;5041576;28;20473;-52
2022/07/30 07:35:47;;;;;;;5.03;1.70;;;18.70;91.30;;;;;;5049620;28;20512;-53
2022/07/30 07:38:15;;;;;;;12.30;1.70;;;18.80;91.60;;;;;;5049604;28;20458;-53
2022/07/30 07:40:42;;;;;;;3.60;1.80;;;18.80;91.30;;;;;;5048309;28;20474;-53
2022/07/30 07:43:08;;;;;;;2.40;1.57;;;18.90;89.80;;;;;;5044604;28;21101;-53
2022/07/30 07:45:35;;;;;;;3.57;1.50;;;18.80;93.50;;;;;;5048168;28;20877;-53
2022/07/30 07:48:02;;;;;;;4.87;1.60;;;18.90;95.90;;;;;;5050741;28;20489;-52
2022/07/30 07:50:28;;;;;;;3.90;1.77;;;19.00;94.70;;;;;;5049699;28;20493;-52
2022/07/30 07:52:55;;;;;;;2.53;1.80;;;19.00;94.30;;;;;;5049287;28;20516;-52
2022/07/30 07:55:23;;;;;;;10.67;1.63;;;19.10;97.60;;;;;;5047465;28;21143;-52
2022/07/30 07:57:49;;;;;;;8.97;1.90;;;19.10;98.40;;;;;;5050534;28;20880;-52
2022/07/30 08:00:17;;;;;;;7.80;1.60;;;19.10;98.10;;;;;;5054490;28;20526;-53
2022/07/30 08:02:44;;;;;;;1.83;1.30;;;19.10;98.40;;;;;;5041582;28;20890;-52
2022/07/30 08:05:12;;;;;;;4.30;1.57;;;19.20;97.60;;;;;;5050900;28;20473;-52
2022/07/30 08:07:39;;;;;;;1.50;1.40;;;19.20;98.30;;;;;;5054913;28;20462;-52
2022/07/30 08:10:07;;;;;;;5.30;1.87;;;19.20;99.90;;;;;;5046697;28;20461;-52
2022/07/30 08:12:36;;;;;;;4.07;1.23;;;19.20;99.90;;;;;;5042808;28;20746;-53
2022/07/30 08:15:03;;;;;;;2.40;1.93;;;19.20;99.80;;;;;;5051229;28;20959;-52
2022/07/30 08:17:30;;;;;;;4.20;1.70;;;19.20;98.70;;;;;;5047427;28;20453;-53
2022/07/30 08:19:59;;;;;;;5.33;1.77;;;19.30;99.30;;;;;;5050591;28;20520;-53
2022/07/30 08:22:26;;;;;;;3.27;1.93;;;19.30;98.90;;;;;;5046418;28;20485;-52
2022/07/30 08:24:53;;;;;;;3.10;1.63;;;19.30;99.90;;;;;;5048494;28;20508;-53
2022/07/30 08:27:19;;;;;;;11.03;2.13;;;19.40;99.90;;;;;;5050120;28;20493;-52
2022/07/30 08:29:47;;;;;;;3.53;1.67;;;19.40;99.90;;;;;;5049600;28;20485;-52
2022/07/30 08:32:14;;;;;;;1.90;1.60;;;19.50;99.90;;;;;;5048652;28;20493;-52
2022/07/30 08:34:40;;;;;;;5.23;1.47;;;19.50;99.90;;;;;;5046586;28;20886;-52
2022/07/30 08:37:07;;;;;;;4.73;1.60;;;19.60;99.90;;;;;;5045852;28;20538;-53
2022/07/30 08:39:33;;;;;;;1.70;1.60;;;19.60;99.90;;;;;;5051663;28;20532;-52
2022/07/30 08:42:02;;;;;;;2.70;1.73;;;19.60;99.90;;;;;;5048520;28;20891;-53
2022/07/30 08:44:29;;;;;;;1.40;1.30;;;19.70;99.90;;;;;;5050823;28;20888;-53
2022/07/30 08:46:59;;;;;;;4.50;1.80;;;19.70;99.90;;;;;;5050810;28;20493;-53
2022/07/30 08:49:26;;;;;;;7.10;1.63;;;19.80;99.90;;;;;;5046015;28;20511;-53
2022/07/30 08:51:53;;;;;;;5.70;1.50;;;19.90;99.90;;;;;;5047881;28;20480;-53
2022/07/30 08:54:19;;;;;;;8.40;1.73;;;19.90;99.90;;;;;;5051682;28;20514;-53
2022/07/30 08:56:48;;;;;;;2.50;1.80;;;20.00;99.90;;;;;;5052732;28;20864;-53
2022/07/30 08:59:15;;;;;;;5.37;3.00;;;20.10;99.90;;;;;;5056106;28;20464;-53
2022/07/30 09:01:42;;;;;;;4.10;1.67;;;20.20;99.90;;;;;;5053118;28;20935;-53
2022/07/30 09:04:10;;;;;;;2.10;1.90;;;20.30;99.90;;;;;;5053724;28;20912;-52
2022/07/30 09:06:37;;;;;;;5.33;1.77;;;20.40;99.90;;;;;;5053391;28;20485;-53
2022/07/30 09:09:03;;;;;;;2.20;2.00;;;20.40;99.90;;;;;;5049034;28;20533;-52
2022/07/30 09:11:33;;;;;;;5.70;1.60;;;20.50;99.90;;;;;;5053200;28;20462;-53
2022/07/30 09:14:08;;;;;;;2.40;1.53;;;20.60;99.90;;;;;;5054352;28;20473;-52
2022/07/30 09:16:34;;;;;;;13.27;1.60;;;20.70;99.90;;;;;;5051737;28;20493;-52
2022/07/30 09:19:13;;;;;;;2.67;1.60;;;20.80;99.90;;;;;;5052618;28;20454;-54
2022/07/30 09:21:40;;;;;;;3.77;1.60;;;20.90;99.90;;;;;;5052323;28;20536;-53
2022/07/30 09:24:09;;;;;;;6.53;2.00;;;21.00;99.90;;;;;;5054342;28;20487;-53
2022/07/30 09:26:53;;;;;;;3.80;1.30;;;21.00;99.90;;;;;;5055971;28;20876;-53
2022/07/30 09:29:22;;;;;;;3.10;2.07;;;21.00;99.90;;;;;;5054098;28;20442;-53
2022/07/30 09:31:59;;;;;;;1.70;1.60;;;21.00;99.90;;;;;;5055216;28;20481;-54
2022/07/30 09:34:29;;;;;;;5.83;1.70;;;21.10;99.90;;;;;;5044239;23;20986;-50
2022/07/30 09:36:57;;;;;;;2.30;1.73;;;21.20;99.90;;;;;;5028098;28;20455;-49
2022/07/30 09:39:35;;;;;;;5.60;1.63;;;21.20;99.90;;;;;;5031806;28;20855;-51
2022/07/30 09:42:02;;;;;;;2.80;1.90;;;21.30;99.90;;;;;;5031711;28;20540;-49
2022/07/30 09:44:29;;;;;;;4.27;2.40;;;21.30;99.90;;;;;;5016393;28;20471;-51
2022/07/30 09:46:57;;;;;;;6.53;1.87;;;21.40;99.90;;;;;;5012827;28;20460;-50
2022/07/30 09:49:25;;;;;;;1.40;1.30;;;21.60;99.90;;;;;;5016621;28;20504;-50
2022/07/30 09:51:54;;;;;;;3.70;1.77;;;21.70;99.90;;;;;;5013066;28;20475;-50
2022/07/30 09:54:21;;;;;;;6.00;1.77;;;21.90;99.90;;;;;;5010169;28;20669;-50
2022/07/30 09:57:02;;;;;;;1.50;1.37;;;22.00;99.90;;;;;;5012482;28;20467;-51
2022/07/30 09:59:30;;;;;;;2.50;1.37;;;22.10;99.90;;;;;;5020801;28;20443;-50
2022/07/30 10:01:58;;;;;;;9.90;1.90;;;22.30;99.90;;;;;;5009136;28;20483;-50
2022/07/30 10:04:25;;;;;;;7.93;1.93;;;22.40;99.90;;;;;;5010333;28;21008;-50
2022/07/30 10:06:54;;;;;;;8.40;2.00;;;22.50;99.90;;;;;;5015067;28;20964;-50
2022/07/30 10:09:26;;;;;;;7.37;1.80;;;22.60;99.90;;;;;;5011419;28;20503;-50
2022/07/30 10:11:54;;;;;;;3.03;2.20;;;22.70;99.90;;;;;;5001897;28;20460;-50
2022/07/30 10:14:22;;;;;;;1.47;1.20;;;22.80;99.90;;;;;;5010546;28;20530;-50
2022/07/30 10:16:50;;;;;;;2.87;1.50;;;23.00;99.90;;;;;;5008451;28;20475;-50
2022/07/30 10:19:17;;;;;;;5.37;1.90;;;23.20;99.90;;;;;;5008719;28;20495;-51
2022/07/30 10:21:45;;;;;;;2.87;1.13;;;23.30;99.90;;;;;;5005205;28;20881;-50
2022/07/30 10:24:16;;;;;;;1.97;1.30;;;23.50;99.90;;;;;;5011724;28;20484;-50
2022/07/30 10:26:43;;;;;;;1.83;1.27;;;23.60;99.90;;;;;;5007487;28;20466;-50
2022/07/30 10:29:09;;;;;;;1.50;1.40;;;23.80;99.90;;;;;;5007162;28;20495;-49
2022/07/30 10:31:36;;;;;;;2.90;1.30;;;23.80;99.90;;;;;;5012736;28;20487;-50
2022/07/30 10:34:03;;;;;;;5.23;1.77;;;23.80;99.90;;;;;;5011684;28;20487;-50
2022/07/30 10:36:30;;;;;;;2.10;1.50;;;23.90;99.90;;;;;;5011741;28;20841;-49
2022/07/30 10:38:57;;;;;;;2.90;1.30;;;23.90;99.90;;;;;;5010579;28;20464;-50
2022/07/30 10:41:39;;;;;;;1.47;1.37;;;23.90;99.90;;;;;;5008015;28;20484;-49
2022/07/30 10:44:31;;;;;;;3.67;1.60;;;23.80;99.90;;;;;;5011502;28;20893;-50
2022/07/30 10:47:02;;;;;;;3.90;1.30;;;23.80;99.90;;;;;;5001919;28;20464;-51
2022/07/30 10:49:29;;;;;;;19.77;1.80;;;23.80;99.90;;;;;;5011903;28;20467;-49
2022/07/30 10:51:56;;;;;;;2.10;1.23;;;23.80;99.90;;;;;;5011895;28;20514;-49
2022/07/30 10:54:36;;;;;;;2.87;1.10;;;23.80;99.90;;;;;;5012094;28;20479;-49
2022/07/30 10:57:06;;;;;;;1.83;1.23;;;23.90;99.90;;;;;;5012967;28;20459;-49
2022/07/30 11:00:06;;;;;;;1.80;1.70;;;23.90;99.90;;;;;;5011495;28;20939;-49
2022/07/30 11:02:34;;;;;;;1.63;1.17;;;24.00;99.90;;;;;;5013913;28;20555;-49
2022/07/30 11:05:22;;;;;;;2.40;1.63;;;24.10;99.90;;;;;;5011845;28;20468;-49
2022/07/30 11:07:49;;;;;;;7.03;1.43;;;24.10;99.90;;;;;;5006303;28;20510;-49
2022/07/30 11:10:35;;;;;;;6.73;1.50;;;24.10;99.90;;;;;;5010259;28;20463;-49
2022/07/30 11:13:03;;;;;;;5.50;1.27;;;24.40;99.90;;;;;;5007972;28;20475;-49
2022/07/30 11:15:52;;;;;;;1.63;1.40;;;24.50;99.90;;;;;;5007672;28;20456;-49
2022/07/30 11:18:19;;;;;;;1.97;1.50;;;24.50;99.90;;;;;;5014153;28;20949;-50
2022/07/30 11:21:14;;;;;;;1.80;1.33;;;24.60;99.90;;;;;;5011059;28;20577;-49
2022/07/30 11:23:41;;;;;;;3.43;1.37;;;24.70;99.90;;;;;;5008323;28;20479;-50
2022/07/30 11:26:08;;;;;;;5.70;1.33;;;24.80;99.90;;;;;;5005805;28;20473;-49
2022/07/30 11:28:39;;;;;;;6.63;1.60;;;24.80;99.90;;;;;;5012006;28;20515;-49
2022/07/30 11:31:27;;;;;;;4.00;1.10;;;24.90;99.90;;;;;;5010586;28;20459;-49
2022/07/30 11:34:28;;;;;;;1.57;1.47;;;25.00;99.90;;;;;;5014464;28;20487;-50
2022/07/30 11:37:07;;;;;;;1.10;1.00;;;25.30;99.90;;;;;;5006832;28;20485;-49
2022/07/30 11:40:11;;;;;;;0.97;0.97;;;25.30;99.90;;;;;;5013502;28;21055;-49
2022/07/30 11:42:40;;;;;;;4.33;1.07;;;25.30;99.90;;;;;;5003477;28;20463;-49
2022/07/30 11:45:31;;;;;;;4.10;1.30;;;25.40;99.90;;;;;;5007411;28;20509;-49
2022/07/30 11:48:02;;;;;;;4.63;1.10;;;25.60;99.90;;;;;;5006186;28;20443;-50
2022/07/30 11:50:32;;;;;;;1.90;1.20;;;25.70;99.90;;;;;;5011427;28;20513;-50
2022/07/30 11:53:00;;;;;;;1.93;1.43;;;25.80;99.90;;;;;;5011301;28;20526;-50
2022/07/30 11:55:30;;;;;;;2.70;1.50;;;25.80;99.90;;;;;;5010326;28;20530;-49
2022/07/30 11:57:58;;;;;;;1.00;1.00;;;25.90;99.90;;;;;;5011959;28;20458;-49
2022/07/30 12:00:25;;;;;;;5.27;1.40;;;25.70;99.90;;;;;;5009043;28;20491;-50
2022/07/30 12:02:52;;;;;;;2.20;1.47;;;25.60;99.90;;;;;;5009782;28;20570;-49
2022/07/30 12:05:25;;;;;;;3.53;1.20;;;25.40;99.90;;;;;;5015150;28;20986;-49
2022/07/30 12:07:56;;;;;;;3.53;1.27;;;25.40;99.90;;;;;;5011149;28;20934;-49
2022/07/30 12:10:23;;;;;;;1.67;1.40;;;25.50;99.90;;;;;;5014758;28;20464;-49
2022/07/30 12:12:50;;;;;;;4.10;1.30;;;25.50;99.90;;;;;;5010473;28;20972;-50
2022/07/30 12:15:31;;;;;;;5.60;1.70;;;25.60;99.90;;;;;;5008105;28;20528;-50
2022/07/30 12:17:59;;;;;;;2.30;1.60;;;25.70;99.90;;;;;;5008966;28;20483;-49
2022/07/30 12:20:27;;;;;;;3.23;1.73;;;25.80;99.90;;;;;;5010927;28;20459;-49
2022/07/30 12:22:55;;;;;;;3.10;1.37;;;25.90;99.90;;;;;;5008965;28;20487;-49
2022/07/30 12:25:22;;;;;;;1.83;1.60;;;25.80;99.90;;;;;;5011005;28;20976;-50
2022/07/30 12:27:49;;;;;;;5.63;1.47;;;25.70;99.90;;;;;;5011557;28;20586;-50
2022/07/30 12:30:17;;;;;;;3.60;1.33;;;25.70;99.90;;;;;;5014647;28;20497;-49
2022/07/30 12:32:45;;;;;;;1.17;1.10;;;25.80;99.90;;;;;;5011619;28;20475;-50
2022/07/30 12:35:12;;;;;;;12.03;2.30;;;25.80;99.90;;;;;;5016679;28;20848;-49
2022/07/30 12:37:39;;;;;;;2.13;1.33;;;25.40;99.90;;;;;;5022198;28;20560;-49
2022/07/30 12:40:10;;;;;;;1.43;1.33;;;25.70;99.90;;;;;;5018818;28;20485;-50
2022/07/30 12:42:37;;;;;;;1.70;1.60;;;25.90;99.90;;;;;;5013850;28;20573;-49
2022/07/30 12:45:06;;;;;;;3.63;1.67;;;26.20;99.90;;;;;;5014492;28;20459;-49
2022/07/30 12:47:34;;;;;;;0.97;0.97;;;26.20;99.90;;;;;;5014818;28;20470;-50
2022/07/30 12:50:02;;;;;;;2.60;1.33;;;26.50;99.90;;;;;;5016007;28;20475;-50
2022/07/30 12:52:30;;;;;;;4.50;1.00;;;26.60;99.90;;;;;;5008555;28;20456;-50
2022/07/30 12:55:02;;;;;;;1.43;1.33;;;26.80;99.90;;;;;;5015430;28;20444;-50